N29YL KMEM-KLIT
Flight info
| Callsign | N29YL |
|---|---|
| Flight time | 0h 40m |
| Altitude | 14000 |
| Route | ELVIS4 WONEE DCT KENLY DCT I22R |
| Aircraft | BE9L/L-VGDW/C |
Departure
| Time | 2026-04-20 19:27 |
|---|---|
| Airport | Memphis International Airport (KMEM) |
Arrival
| Time | 2026-04-20 20:08 |
|---|---|
| Airport | Bill & Hillary Clinton National Airport/Adams Field (KLIT) |
| Time | Latitude | Longitude | Altitude | Speed | Heading |
|---|---|---|---|---|---|
| 2026-04-20 19:18 | 35.05594 | -89.98184 | 339 ft | 0 kts | 140° |
| 2026-04-20 19:23 | 35.05581 | -89.98176 | 339 ft | 6 kts | 165° |
| 2026-04-20 19:24 | 35.05589 | -89.98189 | 339 ft | 11 kts | 43° |
| 2026-04-20 19:24 | 35.05587 | -89.98164 | 339 ft | 5 kts | 175° |
| 2026-04-20 19:24 | 35.05519 | -89.98212 | 339 ft | 15 kts | 222° |
| 2026-04-20 19:24 | 35.05516 | -89.98356 | 339 ft | 21 kts | 324° |
| 2026-04-20 19:25 | 35.05552 | -89.98509 | 339 ft | 23 kts | 199° |
| 2026-04-20 19:25 | 35.05374 | -89.98512 | 339 ft | 27 kts | 180° |
| 2026-04-20 19:25 | 35.05180 | -89.98514 | 339 ft | 26 kts | 179° |
| 2026-04-20 19:25 | 35.04999 | -89.98586 | 339 ft | 28 kts | 206° |
| 2026-04-20 19:26 | 35.04942 | -89.98629 | 339 ft | 5 kts | 227° |
| 2026-04-20 19:26 | 35.04937 | -89.98637 | 339 ft | 0 kts | 239° |
| 2026-04-20 19:26 | 35.04928 | -89.98682 | 339 ft | 10 kts | 269° |
| 2026-04-20 19:26 | 35.04866 | -89.98746 | 339 ft | 29 kts | 176° |
| 2026-04-20 19:27 | 35.04361 | -89.98733 | 339 ft | 105 kts | 179° |
| 2026-04-20 19:27 | 35.03520 | -89.98709 | 473 ft | 133 kts | 178° |
| 2026-04-20 19:27 | 35.02531 | -89.98682 | 766 ft | 152 kts | 188° |
| 2026-04-20 19:27 | 35.01578 | -89.99299 | 1034 ft | 166 kts | 218° |
| 2026-04-20 19:28 | 35.00624 | -90.00191 | 1295 ft | 177 kts | 218° |
| 2026-04-20 19:28 | 34.99636 | -90.01117 | 1549 ft | 184 kts | 218° |
| 2026-04-20 19:28 | 34.98596 | -90.02087 | 1805 ft | 189 kts | 218° |
| 2026-04-20 19:28 | 34.97541 | -90.03065 | 2058 ft | 192 kts | 218° |
| 2026-04-20 19:29 | 34.96481 | -90.04042 | 2308 ft | 195 kts | 218° |
| 2026-04-20 19:29 | 34.95398 | -90.05034 | 2559 ft | 196 kts | 218° |
| 2026-04-20 19:29 | 34.94294 | -90.06039 | 2813 ft | 197 kts | 218° |
| 2026-04-20 19:29 | 34.93195 | -90.07034 | 3065 ft | 197 kts | 218° |
| 2026-04-20 19:30 | 34.92094 | -90.08025 | 3316 ft | 198 kts | 218° |
| 2026-04-20 19:30 | 34.90986 | -90.09017 | 3568 ft | 198 kts | 219° |
| 2026-04-20 19:30 | 34.90085 | -90.10221 | 3809 ft | 193 kts | 250° |
| 2026-04-20 19:30 | 34.89901 | -90.11811 | 4065 ft | 189 kts | 268° |
| 2026-04-20 19:31 | 34.89834 | -90.13425 | 4316 ft | 189 kts | 271° |
| 2026-04-20 19:31 | 34.89795 | -90.15023 | 4564 ft | 188 kts | 272° |
| 2026-04-20 19:31 | 34.89770 | -90.16606 | 4811 ft | 187 kts | 272° |
| 2026-04-20 19:31 | 34.89753 | -90.18188 | 5059 ft | 186 kts | 273° |
| 2026-04-20 19:32 | 34.89742 | -90.19753 | 5305 ft | 185 kts | 273° |
| 2026-04-20 19:32 | 34.89733 | -90.21308 | 5550 ft | 184 kts | 273° |
| 2026-04-20 19:32 | 34.89726 | -90.22874 | 5798 ft | 183 kts | 274° |
| 2026-04-20 19:32 | 34.89719 | -90.24423 | 6045 ft | 182 kts | 274° |
| 2026-04-20 19:33 | 34.89714 | -90.25950 | 6290 ft | 181 kts | 274° |
| 2026-04-20 19:33 | 34.89708 | -90.27480 | 6536 ft | 180 kts | 274° |
| 2026-04-20 19:33 | 34.89703 | -90.29018 | 6776 ft | 180 kts | 274° |
| 2026-04-20 19:33 | 34.89698 | -90.30537 | 6971 ft | 181 kts | 274° |
| 2026-04-20 19:34 | 34.89692 | -90.32076 | 7169 ft | 181 kts | 274° |
| 2026-04-20 19:34 | 34.89686 | -90.33594 | 7363 ft | 181 kts | 274° |
| 2026-04-20 19:34 | 34.89681 | -90.35133 | 7560 ft | 181 kts | 274° |
| 2026-04-20 19:34 | 34.89674 | -90.36671 | 7756 ft | 181 kts | 274° |
| 2026-04-20 19:35 | 34.89668 | -90.38200 | 7952 ft | 180 kts | 274° |
| 2026-04-20 19:35 | 34.89661 | -90.39718 | 8147 ft | 179 kts | 274° |
| 2026-04-20 19:35 | 34.89655 | -90.41219 | 8340 ft | 178 kts | 274° |
| 2026-04-20 19:35 | 34.89648 | -90.42748 | 8515 ft | 179 kts | 274° |
| 2026-04-20 19:36 | 34.89642 | -90.44245 | 8683 ft | 179 kts | 274° |
| 2026-04-20 19:36 | 34.89634 | -90.45779 | 8856 ft | 178 kts | 274° |
| 2026-04-20 19:36 | 34.89627 | -90.47293 | 9026 ft | 178 kts | 274° |
| 2026-04-20 19:36 | 34.89620 | -90.48792 | 9194 ft | 177 kts | 274° |
| 2026-04-20 19:37 | 34.89613 | -90.50286 | 9363 ft | 177 kts | 274° |
| 2026-04-20 19:37 | 34.89605 | -90.51789 | 9532 ft | 176 kts | 274° |
| 2026-04-20 19:37 | 34.89597 | -90.53271 | 9667 ft | 176 kts | 273° |
| 2026-04-20 19:37 | 34.89589 | -90.54774 | 9787 ft | 177 kts | 273° |
| 2026-04-20 19:38 | 34.89581 | -90.56259 | 9905 ft | 177 kts | 273° |
| 2026-04-20 19:38 | 34.89572 | -90.57767 | 10024 ft | 177 kts | 272° |
| 2026-04-20 19:38 | 34.89516 | -90.59275 | 10139 ft | 177 kts | 275° |
| 2026-04-20 19:38 | 34.89529 | -90.60756 | 10255 ft | 176 kts | 274° |
| 2026-04-20 19:39 | 34.89531 | -90.62257 | 10348 ft | 177 kts | 272° |
| 2026-04-20 19:39 | 34.89527 | -90.63760 | 10441 ft | 177 kts | 272° |
| 2026-04-20 19:39 | 34.89521 | -90.65270 | 10535 ft | 177 kts | 272° |
| 2026-04-20 19:39 | 34.89512 | -90.66770 | 10637 ft | 177 kts | 272° |
| 2026-04-20 19:40 | 34.89505 | -90.68270 | 10738 ft | 177 kts | 272° |
| 2026-04-20 19:40 | 34.89495 | -90.69780 | 10840 ft | 177 kts | 272° |
| 2026-04-20 19:40 | 34.89485 | -90.71285 | 10942 ft | 177 kts | 271° |
| 2026-04-20 19:40 | 34.89476 | -90.72763 | 11042 ft | 176 kts | 272° |
| 2026-04-20 19:41 | 34.89465 | -90.74268 | 11143 ft | 176 kts | 272° |
| 2026-04-20 19:41 | 34.89455 | -90.75765 | 11245 ft | 176 kts | 272° |
| 2026-04-20 19:41 | 34.89443 | -90.77257 | 11346 ft | 175 kts | 272° |
| 2026-04-20 19:41 | 34.89432 | -90.78730 | 11445 ft | 175 kts | 272° |
| 2026-04-20 19:42 | 34.89348 | -90.80218 | 11545 ft | 176 kts | 265° |
| 2026-04-20 19:42 | 34.89192 | -90.81698 | 11645 ft | 176 kts | 266° |
| 2026-04-20 19:42 | 34.89032 | -90.83187 | 11745 ft | 176 kts | 266° |
| 2026-04-20 19:42 | 34.88873 | -90.84654 | 11844 ft | 176 kts | 266° |
| 2026-04-20 19:43 | 34.88711 | -90.86132 | 11944 ft | 176 kts | 266° |
| 2026-04-20 19:43 | 34.88550 | -90.87605 | 12023 ft | 177 kts | 266° |
| 2026-04-20 19:43 | 34.88387 | -90.89105 | 11999 ft | 182 kts | 266° |
| 2026-04-20 19:43 | 34.88219 | -90.90633 | 11992 ft | 185 kts | 266° |
| 2026-04-20 19:44 | 34.88046 | -90.92200 | 11990 ft | 187 kts | 266° |
| 2026-04-20 19:44 | 34.87878 | -90.93717 | 11990 ft | 188 kts | 266° |
| 2026-04-20 19:44 | 34.87704 | -90.95295 | 11990 ft | 188 kts | 266° |
| 2026-04-20 19:44 | 34.87528 | -90.96892 | 11990 ft | 189 kts | 266° |
| 2026-04-20 19:45 | 34.87351 | -90.98492 | 11990 ft | 189 kts | 266° |
| 2026-04-20 19:45 | 34.87174 | -91.00079 | 11990 ft | 190 kts | 266° |
| 2026-04-20 19:45 | 34.86998 | -91.01666 | 11990 ft | 190 kts | 266° |
| 2026-04-20 19:45 | 34.86820 | -91.03272 | 11990 ft | 190 kts | 266° |
| 2026-04-20 19:46 | 34.86641 | -91.04876 | 11990 ft | 190 kts | 266° |
| 2026-04-20 19:46 | 34.86463 | -91.06467 | 11990 ft | 190 kts | 266° |
| 2026-04-20 19:46 | 34.86288 | -91.08041 | 11986 ft | 184 kts | 265° |
| 2026-04-20 19:46 | 34.86113 | -91.09599 | 11990 ft | 185 kts | 265° |
| 2026-04-20 19:47 | 34.85939 | -91.11157 | 11991 ft | 186 kts | 265° |
| 2026-04-20 19:47 | 34.85766 | -91.12703 | 11991 ft | 186 kts | 265° |
| 2026-04-20 19:47 | 34.85590 | -91.14269 | 11992 ft | 187 kts | 265° |
| 2026-04-20 19:47 | 34.85415 | -91.15833 | 11992 ft | 187 kts | 265° |
| 2026-04-20 19:48 | 34.85236 | -91.17418 | 11993 ft | 187 kts | 265° |
| 2026-04-20 19:48 | 34.85060 | -91.18980 | 11993 ft | 188 kts | 265° |
| 2026-04-20 19:48 | 34.84821 | -91.20553 | 11995 ft | 189 kts | 259° |
| 2026-04-20 19:48 | 34.84510 | -91.22114 | 11996 ft | 189 kts | 260° |
| 2026-04-20 19:49 | 34.84201 | -91.23662 | 11997 ft | 189 kts | 260° |
| 2026-04-20 19:49 | 34.83889 | -91.25222 | 11999 ft | 189 kts | 260° |
| 2026-04-20 19:49 | 34.83579 | -91.26777 | 12001 ft | 189 kts | 260° |
| 2026-04-20 19:49 | 34.83268 | -91.28332 | 12002 ft | 189 kts | 260° |
| 2026-04-20 19:50 | 34.82958 | -91.29888 | 12004 ft | 189 kts | 260° |
| 2026-04-20 19:50 | 34.82650 | -91.31434 | 12005 ft | 189 kts | 260° |
| 2026-04-20 19:50 | 34.82340 | -91.32989 | 12007 ft | 189 kts | 260° |
| 2026-04-20 19:50 | 34.82030 | -91.34551 | 12008 ft | 189 kts | 260° |
| 2026-04-20 19:51 | 34.81720 | -91.36109 | 12009 ft | 189 kts | 260° |
| 2026-04-20 19:51 | 34.81409 | -91.37676 | 12010 ft | 189 kts | 260° |
| 2026-04-20 19:51 | 34.81099 | -91.39233 | 12011 ft | 189 kts | 259° |
| 2026-04-20 19:51 | 34.81082 | -91.40806 | 12017 ft | 186 kts | 278° |
| 2026-04-20 19:52 | 34.81238 | -91.42358 | 12014 ft | 186 kts | 278° |
| 2026-04-20 19:52 | 34.81397 | -91.43923 | 12014 ft | 186 kts | 278° |
| 2026-04-20 19:52 | 34.81556 | -91.45489 | 12015 ft | 186 kts | 278° |
| 2026-04-20 19:52 | 34.81714 | -91.47065 | 12015 ft | 186 kts | 278° |
| 2026-04-20 19:53 | 34.81871 | -91.48632 | 12015 ft | 186 kts | 278° |
| 2026-04-20 19:53 | 34.82029 | -91.50207 | 12015 ft | 187 kts | 278° |
| 2026-04-20 19:53 | 34.82186 | -91.51774 | 12014 ft | 187 kts | 278° |
| 2026-04-20 19:53 | 34.82343 | -91.53348 | 11960 ft | 190 kts | 278° |
| 2026-04-20 19:54 | 34.82502 | -91.54937 | 11697 ft | 190 kts | 278° |
| 2026-04-20 19:54 | 34.82663 | -91.56543 | 11307 ft | 190 kts | 277° |
| 2026-04-20 19:54 | 34.82820 | -91.58122 | 10930 ft | 190 kts | 277° |
| 2026-04-20 19:54 | 34.82979 | -91.59721 | 10546 ft | 189 kts | 277° |
| 2026-04-20 19:55 | 34.83136 | -91.61314 | 10165 ft | 189 kts | 276° |
| 2026-04-20 19:55 | 34.83293 | -91.62897 | 9786 ft | 189 kts | 276° |
| 2026-04-20 19:55 | 34.83451 | -91.64495 | 9404 ft | 189 kts | 276° |
| 2026-04-20 19:55 | 34.83608 | -91.66092 | 9027 ft | 189 kts | 275° |
| 2026-04-20 19:56 | 34.83711 | -91.67146 | 8780 ft | 189 kts | 275° |
| 2026-04-20 19:56 | 34.83918 | -91.69256 | 8286 ft | 190 kts | 275° |
| 2026-04-20 19:56 | 34.84075 | -91.70856 | 7912 ft | 190 kts | 274° |
| 2026-04-20 19:56 | 34.84230 | -91.72440 | 7542 ft | 190 kts | 274° |
| 2026-04-20 19:57 | 34.84387 | -91.74038 | 7169 ft | 190 kts | 274° |
| 2026-04-20 19:57 | 34.84541 | -91.75617 | 6801 ft | 191 kts | 274° |
| 2026-04-20 19:57 | 34.84699 | -91.77232 | 6426 ft | 191 kts | 274° |
| 2026-04-20 19:57 | 34.84855 | -91.78834 | 6054 ft | 192 kts | 274° |
| 2026-04-20 19:58 | 34.85012 | -91.80443 | 5681 ft | 192 kts | 274° |
| 2026-04-20 19:58 | 34.85168 | -91.82050 | 5312 ft | 192 kts | 274° |
| 2026-04-20 19:58 | 34.85316 | -91.83572 | 5359 ft | 173 kts | 274° |
| 2026-04-20 19:58 | 34.85453 | -91.84978 | 5367 ft | 160 kts | 274° |
| 2026-04-20 19:59 | 34.85579 | -91.86289 | 5363 ft | 151 kts | 273° |
| 2026-04-20 19:59 | 34.85701 | -91.87558 | 5156 ft | 157 kts | 274° |
| 2026-04-20 19:59 | 34.85832 | -91.88924 | 4813 ft | 168 kts | 274° |
| 2026-04-20 19:59 | 34.85972 | -91.90368 | 4469 ft | 176 kts | 274° |
| 2026-04-20 20:00 | 34.86117 | -91.91866 | 4124 ft | 181 kts | 274° |
| 2026-04-20 20:00 | 34.86266 | -91.93408 | 3768 ft | 185 kts | 274° |
| 2026-04-20 20:00 | 34.86416 | -91.94968 | 3341 ft | 191 kts | 274° |
| 2026-04-20 20:00 | 34.86570 | -91.96572 | 2800 ft | 194 kts | 274° |
| 2026-04-20 20:01 | 34.86727 | -91.98211 | 2305 ft | 193 kts | 274° |
| 2026-04-20 20:01 | 34.86876 | -91.99756 | 2201 ft | 173 kts | 274° |
| 2026-04-20 20:01 | 34.87009 | -92.01141 | 2185 ft | 154 kts | 274° |
| 2026-04-20 20:01 | 34.87125 | -92.02366 | 2187 ft | 145 kts | 274° |
| 2026-04-20 20:02 | 34.87243 | -92.03612 | 2193 ft | 149 kts | 273° |
| 2026-04-20 20:02 | 34.87051 | -92.04813 | 2298 ft | 141 kts | 244° |
| 2026-04-20 20:02 | 34.86412 | -92.05697 | 2384 ft | 138 kts | 224° |
| 2026-04-20 20:02 | 34.85738 | -92.06522 | 2401 ft | 142 kts | 227° |
| 2026-04-20 20:03 | 34.85036 | -92.07433 | 2298 ft | 152 kts | 226° |
| 2026-04-20 20:03 | 34.84290 | -92.08390 | 2205 ft | 158 kts | 226° |
| 2026-04-20 20:03 | 34.83535 | -92.09359 | 2182 ft | 158 kts | 223° |
| 2026-04-20 20:03 | 34.82775 | -92.10332 | 2078 ft | 164 kts | 223° |
| 2026-04-20 20:04 | 34.81967 | -92.11368 | 1917 ft | 170 kts | 224° |
| 2026-04-20 20:04 | 34.81175 | -92.12384 | 1867 ft | 154 kts | 224° |
| 2026-04-20 20:04 | 34.80507 | -92.13248 | 1856 ft | 130 kts | 222° |
| 2026-04-20 20:04 | 34.79922 | -92.13994 | 1857 ft | 114 kts | 221° |
| 2026-04-20 20:05 | 34.79396 | -92.14666 | 1848 ft | 105 kts | 220° |
| 2026-04-20 20:05 | 34.78887 | -92.15318 | 1719 ft | 109 kts | 223° |
| 2026-04-20 20:05 | 34.78344 | -92.16007 | 1590 ft | 119 kts | 223° |
| 2026-04-20 20:05 | 34.77755 | -92.16761 | 1435 ft | 126 kts | 221° |
| 2026-04-20 20:06 | 34.77137 | -92.17553 | 1257 ft | 129 kts | 222° |
| 2026-04-20 20:06 | 34.76532 | -92.18328 | 1085 ft | 127 kts | 222° |
| 2026-04-20 20:06 | 34.75926 | -92.19110 | 912 ft | 123 kts | 221° |
| 2026-04-20 20:06 | 34.75348 | -92.19849 | 752 ft | 119 kts | 224° |
| 2026-04-20 20:07 | 34.74785 | -92.20567 | 593 ft | 118 kts | 223° |
| 2026-04-20 20:07 | 34.74216 | -92.21294 | 445 ft | 116 kts | 224° |
| 2026-04-20 20:07 | 34.73680 | -92.21973 | 306 ft | 106 kts | 225° |
| 2026-04-20 20:07 | 34.73238 | -92.22533 | 265 ft | 54 kts | 225° |
| 2026-04-20 20:08 | 34.73119 | -92.22809 | 265 ft | 33 kts | 256° |
| 2026-04-20 20:08 | 34.73090 | -92.23068 | 265 ft | 29 kts | 271° |
| 2026-04-20 20:08 | 34.73092 | -92.23317 | 265 ft | 29 kts | 271° |
| 2026-04-20 20:08 | 34.73096 | -92.23571 | 265 ft | 29 kts | 271° |
| 2026-04-20 20:09 | 34.73099 | -92.23822 | 265 ft | 30 kts | 272° |
| 2026-04-20 20:09 | 34.73200 | -92.23975 | 265 ft | 28 kts | 3° |
| 2026-04-20 20:09 | 34.73389 | -92.23963 | 265 ft | 26 kts | 3° |
| 2026-04-20 20:09 | 34.73570 | -92.23955 | 265 ft | 26 kts | 2° |
| 2026-04-20 20:10 | 34.73595 | -92.23996 | 265 ft | 14 kts | 186° |
| 2026-04-20 20:10 | 34.73499 | -92.24001 | 265 ft | 13 kts | 191° |
| 2026-04-20 20:10 | 34.73473 | -92.24080 | 265 ft | 14 kts | 310° |
| 2026-04-20 20:10 | 34.73476 | -92.24194 | 265 ft | 14 kts | 259° |
| 2026-04-20 20:11 | 34.73457 | -92.24194 | 265 ft | 0 kts | 96° |